createdAt,value
2018-11-05T00:00:31.946Z,99.99
2018-11-05T00:01:32.005Z,99.99
2018-11-05T00:02:32.057Z,99.99
2018-11-05T00:03:32.122Z,99.99
2018-11-05T00:04:32.174Z,99.99
2018-11-05T00:05:32.281Z,99.99
2018-11-05T00:06:32.298Z,99.99
2018-11-05T00:07:32.359Z,99.99
2018-11-05T00:08:32.422Z,99.99
2018-11-05T00:09:32.482Z,99.99
2018-11-05T00:10:32.549Z,99.99
2018-11-05T00:11:32.606Z,99.99
2018-11-05T00:12:32.662Z,99.99
2018-11-05T00:13:32.718Z,99.99
2018-11-05T00:14:32.792Z,99.99
2018-11-05T00:15:32.850Z,99.99
2018-11-05T00:16:32.906Z,99.99
2018-11-05T00:17:32.964Z,99.99
2018-11-05T00:18:33.022Z,99.99
2018-11-05T00:19:33.091Z,99.99
2018-11-05T00:20:33.242Z,99.99
2018-11-05T00:21:33.206Z,99.99
2018-11-05T00:22:33.258Z,99.99
2018-11-05T00:23:33.322Z,99.99
2018-11-05T00:24:33.382Z,99.99
2018-11-05T00:25:33.457Z,99.99
2018-11-05T00:26:33.506Z,99.99
2018-11-05T00:27:33.563Z,99.99
2018-11-05T00:28:33.622Z,99.99
2018-11-05T00:29:33.679Z,99.99
2018-11-05T00:30:33.751Z,99.99
2018-11-05T00:31:33.822Z,99.99
2018-11-05T00:32:33.868Z,99.99
2018-11-05T00:33:44.534Z,99.99
2018-11-05T00:34:33.983Z,99.99
2018-11-05T00:35:34.053Z,99.99
2018-11-05T00:36:34.111Z,99.99
2018-11-05T00:37:34.163Z,99.99
2018-11-05T00:38:34.223Z,99.99
2018-11-05T00:39:34.284Z,99.99
2018-11-05T00:40:34.415Z,99.99
2018-11-05T00:41:34.399Z,99.99
2018-11-05T00:42:34.459Z,99.99
2018-11-05T00:43:34.519Z,99.99
2018-11-05T00:44:34.580Z,99.99
2018-11-05T00:45:34.755Z,99.99
2018-11-05T00:46:34.715Z,99.99
2018-11-05T00:47:34.759Z,99.99
2018-11-05T00:48:34.819Z,99.99
2018-11-05T00:49:34.880Z,99.99
2018-11-05T00:50:34.960Z,99.99
2018-11-05T00:51:35.011Z,99.99
2018-11-05T00:52:35.064Z,99.99
2018-11-05T00:53:35.122Z,99.99
2018-11-05T00:54:35.180Z,99.99
2018-11-05T00:55:35.283Z,99.99
2018-11-05T00:56:35.300Z,99.99
2018-11-05T00:57:35.359Z,99.99
2018-11-05T00:58:35.420Z,99.99
2018-11-05T00:59:35.484Z,99.99
2018-11-05T01:00:35.620Z,99.99
2018-11-05T01:01:35.654Z,99.99
2018-11-05T01:02:35.660Z,99.99
2018-11-05T01:03:35.716Z,99.99
2018-11-05T01:04:35.780Z,99.99
2018-11-05T01:05:35.848Z,99.99
2018-11-05T01:06:35.911Z,99.99
2018-11-05T01:07:35.960Z,99.99
2018-11-05T01:08:36.021Z,99.99
2018-11-05T01:09:36.080Z,99.99
2018-11-05T01:10:36.438Z,99.99
2018-11-05T01:11:36.204Z,99.99
2018-11-05T01:12:36.263Z,99.99
2018-11-05T01:13:36.321Z,99.99
2018-11-05T01:14:36.380Z,99.99
2018-11-05T01:15:36.449Z,99.99
2018-11-05T01:16:36.517Z,99.99
2018-11-05T01:17:36.561Z,99.99
2018-11-05T01:18:36.621Z,99.99
2018-11-05T01:19:36.685Z,99.99
2018-11-05T01:20:36.749Z,99.99
2018-11-05T01:21:36.813Z,99.99
2018-11-05T01:22:36.864Z,99.99
2018-11-05T01:23:36.925Z,99.99
2018-11-05T01:24:36.981Z,99.99
2018-11-05T01:25:37.049Z,99.99
2018-11-05T01:26:37.110Z,99.99
2018-11-05T01:27:37.161Z,99.99
2018-11-05T01:28:37.221Z,99.99
2018-11-05T01:29:37.281Z,99.99
2018-11-05T01:30:37.365Z,99.99
2018-11-05T01:31:37.410Z,99.99
2018-11-05T01:32:37.463Z,99.99
2018-11-05T01:33:37.522Z,99.99
2018-11-05T01:34:37.581Z,99.99
2018-11-05T01:35:37.649Z,99.99
2018-11-05T01:36:37.710Z,99.99
2018-11-05T01:37:37.762Z,99.99
2018-11-05T01:38:37.830Z,99.99
2018-11-05T01:39:37.885Z,99.99
2018-11-05T01:40:37.950Z,99.99
2018-11-05T01:41:38.010Z,99.99
2018-11-05T01:42:38.062Z,99.99
2018-11-05T01:43:38.126Z,99.99
2018-11-05T01:44:38.186Z,99.99
2018-11-05T01:45:38.346Z,99.99
2018-11-05T01:46:38.306Z,99.99
2018-11-05T01:47:38.362Z,99.99
2018-11-05T01:48:38.425Z,99.99
2018-11-05T01:49:38.486Z,99.99
2018-11-05T01:50:38.572Z,99.99
2018-11-05T01:51:38.610Z,99.99
2018-11-05T01:52:38.897Z,99.99
2018-11-05T01:53:38.722Z,99.99
2018-11-05T01:54:38.782Z,99.99
2018-11-05T01:55:38.850Z,99.99
2018-11-05T01:56:38.914Z,99.99
2018-11-05T01:57:38.958Z,99.99
2018-11-05T01:58:39.022Z,99.99
2018-11-05T01:59:39.082Z,99.99
2018-11-05T02:00:39.142Z,99.99
2018-11-05T02:01:39.471Z,99.99
2018-11-05T02:02:39.266Z,99.99
2018-11-05T02:03:39.323Z,99.99
2018-11-05T02:04:39.384Z,99.99
2018-11-05T02:05:39.443Z,99.99
2018-11-05T02:06:39.510Z,99.99
2018-11-05T02:07:39.575Z,99.99
2018-11-05T02:08:39.623Z,99.99
2018-11-05T02:09:39.683Z,99.99
2018-11-05T02:10:39.743Z,99.99
2018-11-05T02:11:39.830Z,99.99
2018-11-05T02:12:39.886Z,99.99
2018-11-05T02:13:39.923Z,99.99
2018-11-05T02:14:39.987Z,99.99
2018-11-05T02:15:40.043Z,99.99
2018-11-05T02:16:40.375Z,99.99
2018-11-05T02:17:40.163Z,99.99
2018-11-05T02:18:40.223Z,99.99
2018-11-05T02:19:40.295Z,99.99
2018-11-05T02:20:40.343Z,99.99
2018-11-05T02:21:40.411Z,99.99
2018-11-05T02:22:40.478Z,99.99
2018-11-05T02:23:40.528Z,99.99
2018-11-05T02:24:40.587Z,99.99
2018-11-05T02:25:40.651Z,99.99
2018-11-05T02:26:40.712Z,99.99
2018-11-05T02:27:40.775Z,99.99
2018-11-05T02:28:40.827Z,99.99
2018-11-05T02:29:40.899Z,99.99
2018-11-05T02:30:40.948Z,99.99
2018-11-05T02:31:41.018Z,99.99
2018-11-05T02:32:41.080Z,99.99
2018-11-05T02:33:41.129Z,99.99
2018-11-05T02:34:41.188Z,99.99
2018-11-05T02:35:41.260Z,99.99
2018-11-05T02:36:41.320Z,99.99
2018-11-05T02:37:41.375Z,99.99
2018-11-05T02:38:41.428Z,99.99
2018-11-05T02:39:41.484Z,99.99
2018-11-05T02:40:41.548Z,99.99
2018-11-05T02:41:41.672Z,99.99
2018-11-05T02:42:41.676Z,99.99
2018-11-05T02:43:41.728Z,99.99
2018-11-05T02:44:41.793Z,99.99
2018-11-05T02:45:41.854Z,99.99
2018-11-05T02:46:41.917Z,99.99
2018-11-05T02:47:41.988Z,99.99
2018-11-05T02:48:42.036Z,99.99
2018-11-05T02:49:42.089Z,99.99
2018-11-05T02:50:42.153Z,99.99
2018-11-05T02:51:42.309Z,99.99
2018-11-05T02:52:42.273Z,99.99
2018-11-05T02:53:42.333Z,99.99
2018-11-05T02:54:42.393Z,99.99
2018-11-05T02:55:42.461Z,99.99
2018-11-05T02:56:42.521Z,99.99
2018-11-05T02:57:42.592Z,99.99
2018-11-05T02:58:42.633Z,99.99
2018-11-05T02:59:42.693Z,99.99
2018-11-05T03:00:42.753Z,99.99
2018-11-05T03:01:42.821Z,99.99
2018-11-05T03:02:42.901Z,99.99
2018-11-05T03:03:42.933Z,99.99
2018-11-05T03:04:42.993Z,99.99
2018-11-05T03:05:43.057Z,99.99
2018-11-05T03:06:43.113Z,99.99
2018-11-05T03:07:43.274Z,99.99
2018-11-05T03:08:43.247Z,99.99
2018-11-05T03:09:43.297Z,99.99
2018-11-05T03:10:43.366Z,99.99
2018-11-05T03:11:43.417Z,99.99
2018-11-05T03:12:43.487Z,99.99
2018-11-05T03:13:43.542Z,99.99
2018-11-05T03:14:43.610Z,99.99
2018-11-05T03:15:43.657Z,99.99
2018-11-05T03:16:43.717Z,99.99
2018-11-05T03:17:43.791Z,99.99
2018-11-05T03:18:43.846Z,99.99
2018-11-05T03:19:43.898Z,99.99
2018-11-05T03:20:43.958Z,99.99
2018-11-05T03:21:44.023Z,99.99
2018-11-05T03:22:44.278Z,99.99
2018-11-05T03:23:44.138Z,99.99
2018-11-05T03:24:44.198Z,99.99
2018-11-05T03:25:44.262Z,99.99
2018-11-05T03:26:44.323Z,99.99
2018-11-05T03:27:44.395Z,99.99
2018-11-05T03:28:44.451Z,99.99
2018-11-05T03:29:44.503Z,99.99
2018-11-05T03:30:44.577Z,99.99
2018-11-05T03:31:44.630Z,99.99
2018-11-05T03:32:44.723Z,99.99
2018-11-05T03:33:44.762Z,99.99
2018-11-05T03:34:44.804Z,99.99
2018-11-05T03:35:44.878Z,99.99
2018-11-05T03:36:44.927Z,99.99
2018-11-05T03:37:44.999Z,99.99
2018-11-05T03:38:45.052Z,99.99
2018-11-05T03:39:45.111Z,99.99
2018-11-05T03:40:45.164Z,99.99
2018-11-05T03:41:45.224Z,99.99
2018-11-05T03:42:45.287Z,99.99
2018-11-05T03:43:45.444Z,99.99
2018-11-05T03:44:45.411Z,99.99
2018-11-05T03:45:45.543Z,99.99
2018-11-05T03:46:45.529Z,99.99
2018-11-05T03:47:45.589Z,99.99
2018-11-05T03:48:45.662Z,99.99
2018-11-05T03:49:45.724Z,99.99
2018-11-05T03:50:45.768Z,99.99
2018-11-05T03:51:45.828Z,99.99
2018-11-05T03:52:45.884Z,99.99
2018-11-05T03:53:45.962Z,99.99
2018-11-05T03:54:46.016Z,99.99
2018-11-05T03:55:46.161Z,99.99
2018-11-05T03:56:46.244Z,99.99
2018-11-05T03:57:46.192Z,99.99
2018-11-05T03:58:46.254Z,99.99
2018-11-05T03:59:46.420Z,99.99
2018-11-05T04:00:46.376Z,99.99
2018-11-05T04:01:46.456Z,99.99
2018-11-05T04:02:46.496Z,99.99
2018-11-05T04:03:46.560Z,99.99
2018-11-05T04:04:46.625Z,99.99
2018-11-05T04:05:46.680Z,99.99
2018-11-05T04:06:46.732Z,99.99
2018-11-05T04:07:46.794Z,99.99
2018-11-05T04:08:46.864Z,99.99
2018-11-05T04:09:46.925Z,99.99
2018-11-05T04:10:46.981Z,99.99
2018-11-05T04:11:47.033Z,99.99
2018-11-05T04:12:47.097Z,99.99
2018-11-05T04:13:47.157Z,99.99
2018-11-05T04:14:47.276Z,99.99
2018-11-05T04:15:47.410Z,99.99
2018-11-05T04:16:47.344Z,99.99
2018-11-05T04:17:47.400Z,99.99
2018-11-05T04:18:47.457Z,99.99
2018-11-05T04:19:47.527Z,99.99
2018-11-05T04:20:47.591Z,99.99
2018-11-05T04:21:47.641Z,99.99
2018-11-05T04:22:47.703Z,99.99
2018-11-05T04:23:47.761Z,99.99
2018-11-05T04:24:47.830Z,99.99
2018-11-05T04:25:47.889Z,99.99
2018-11-05T04:26:47.949Z,99.99
2018-11-05T04:27:48.048Z,99.99
2018-11-05T04:28:48.069Z,99.99
2018-11-05T04:29:48.125Z,99.99
2018-11-05T04:30:48.233Z,99.99
2018-11-05T04:31:48.245Z,99.99
2018-11-05T04:32:48.314Z,99.99
2018-11-05T04:33:48.366Z,99.99
2018-11-05T04:34:48.427Z,99.99
2018-11-05T04:35:48.494Z,99.99
2018-11-05T04:36:48.558Z,99.99
2018-11-05T04:37:48.613Z,99.99
2018-11-05T04:38:48.674Z,99.99
2018-11-05T04:39:48.730Z,99.99
2018-11-05T04:40:48.799Z,99.99
2018-11-05T04:41:48.873Z,99.99
2018-11-05T04:42:48.914Z,99.99
2018-11-05T04:43:48.976Z,99.99
2018-11-05T04:44:49.034Z,99.99
2018-11-05T04:45:49.094Z,99.99
2018-11-05T04:46:49.294Z,99.99
2018-11-05T04:47:49.216Z,99.99
2018-11-05T04:48:49.278Z,99.99
2018-11-05T04:49:49.337Z,99.99
2018-11-05T04:50:49.402Z,99.99
2018-11-05T04:51:49.467Z,99.99
2018-11-05T04:52:49.527Z,99.99
2018-11-05T04:53:49.582Z,99.99
2018-11-05T04:54:49.643Z,99.99
2018-11-05T04:55:49.703Z,99.99
2018-11-05T04:56:49.771Z,99.99
2018-11-05T04:57:49.831Z,99.99
2018-11-05T04:58:49.902Z,99.99
2018-11-05T04:59:49.943Z,99.99
2018-11-05T05:00:50.007Z,99.99
2018-11-05T05:01:50.083Z,99.99
2018-11-05T05:02:50.127Z,99.99
2018-11-05T05:03:50.192Z,99.99
2018-11-05T05:04:50.259Z,99.99
2018-11-05T05:05:50.312Z,99.99
2018-11-05T05:06:50.379Z,99.99
2018-11-05T05:07:50.484Z,99.99
2018-11-05T05:08:50.492Z,99.99
2018-11-05T05:09:50.551Z,99.99
2018-11-05T05:10:50.615Z,99.99
2018-11-05T05:11:50.687Z,99.99
2018-11-05T05:12:50.743Z,99.99
2018-11-05T05:13:50.796Z,99.99
2018-11-05T05:14:50.856Z,99.99
2018-11-05T05:15:50.920Z,99.99
2018-11-05T05:16:50.988Z,99.99
2018-11-05T05:17:51.047Z,99.99
2018-11-05T05:18:51.111Z,99.99
2018-11-05T05:19:51.163Z,99.99
2018-11-05T05:20:51.227Z,99.99
2018-11-05T05:21:51.284Z,99.99
2018-11-05T05:22:51.822Z,99.99
2018-11-05T05:23:51.408Z,99.99
2018-11-05T05:24:51.468Z,99.99
2018-11-05T05:25:51.528Z,99.99
2018-11-05T05:26:51.588Z,99.99
2018-11-05T05:27:51.656Z,99.99
2018-11-05T05:28:51.720Z,99.99
2018-11-05T05:29:51.772Z,99.99
2018-11-05T05:30:51.832Z,99.99
2018-11-05T05:31:51.896Z,99.99
2018-11-05T05:32:51.990Z,99.99
2018-11-05T05:33:52.025Z,99.99
2018-11-05T05:34:52.084Z,99.99
2018-11-05T05:35:52.137Z,99.99
2018-11-05T05:36:52.205Z,99.99
2018-11-05T05:37:52.528Z,99.99
2018-11-05T05:38:52.320Z,99.99
2018-11-05T05:39:52.380Z,99.99
2018-11-05T05:40:52.481Z,99.99
2018-11-05T05:41:52.515Z,99.99
2018-11-05T05:42:52.573Z,99.99
2018-11-05T05:43:52.636Z,99.99
2018-11-05T05:44:52.688Z,99.99
2018-11-05T05:45:52.751Z,99.99
2018-11-05T05:46:52.808Z,99.99
2018-11-05T05:47:52.881Z,99.99
2018-11-05T05:48:52.941Z,99.99
2018-11-05T05:49:53.018Z,99.99
2018-11-05T05:50:53.057Z,99.99
2018-11-05T05:51:53.117Z,99.99
2018-11-05T05:52:53.445Z,99.99
2018-11-05T05:53:53.237Z,99.99
2018-11-05T05:54:53.301Z,99.99
2018-11-05T05:55:53.364Z,99.99
2018-11-05T05:56:53.421Z,99.99
2018-11-05T05:57:53.489Z,99.99
2018-11-05T05:58:53.553Z,99.99
2018-11-05T05:59:53.706Z,99.99
2018-11-05T06:00:53.665Z,99.99
2018-11-05T06:01:53.729Z,99.99
2018-11-05T06:02:53.801Z,99.99
2018-11-05T06:03:53.857Z,99.99
2018-11-05T06:04:53.913Z,99.99
2018-11-05T06:05:54.013Z,99.99
2018-11-05T06:06:54.034Z,99.99
2018-11-05T06:07:54.205Z,99.99
2018-11-05T06:08:54.160Z,99.99
2018-11-05T06:09:54.218Z,99.99
2018-11-05T06:10:54.278Z,99.99
2018-11-05T06:11:54.342Z,99.99
2018-11-05T06:12:54.409Z,99.99
2018-11-05T06:13:54.473Z,99.99
2018-11-05T06:14:54.526Z,99.99
2018-11-05T06:15:54.656Z,99.99
2018-11-05T06:16:54.646Z,99.99
2018-11-05T06:17:54.715Z,99.99
2018-11-05T06:18:54.779Z,99.99
2018-11-05T06:19:54.835Z,99.99
2018-11-05T06:20:54.895Z,99.99
2018-11-05T06:21:55.032Z,99.99
2018-11-05T06:22:55.023Z,99.99
2018-11-05T06:23:55.083Z,99.99
2018-11-05T06:24:55.139Z,99.99
2018-11-05T06:25:55.199Z,99.99
2018-11-05T06:26:55.259Z,99.99
2018-11-05T06:27:55.336Z,99.99
2018-11-05T06:28:55.394Z,99.99
2018-11-05T06:29:55.443Z,99.99
2018-11-05T06:30:55.508Z,99.99
2018-11-05T06:31:55.567Z,99.99
2018-11-05T06:32:55.636Z,99.99
2018-11-05T06:33:55.695Z,99.99
2018-11-05T06:34:55.752Z,99.99
2018-11-05T06:35:55.811Z,99.99
2018-11-05T06:36:55.876Z,99.99
2018-11-05T06:37:55.944Z,99.99
2018-11-05T06:38:56.004Z,99.99
2018-11-05T06:39:56.060Z,99.99
2018-11-05T06:40:56.120Z,99.99
2018-11-05T06:41:56.226Z,99.99
2018-11-05T06:42:56.385Z,99.99
2018-11-05T06:43:56.330Z,99.99
2018-11-05T06:44:56.536Z,99.99
2018-11-05T06:45:56.428Z,99.99
2018-11-05T06:46:56.488Z,99.99
2018-11-05T06:47:56.555Z,99.99
2018-11-05T06:48:56.658Z,99.99
2018-11-05T06:49:56.672Z,99.99
2018-11-05T06:50:56.736Z,99.99
2018-11-05T06:51:56.795Z,99.99
2018-11-05T06:52:56.957Z,99.99
2018-11-05T06:53:56.928Z,99.99
2018-11-05T06:54:56.980Z,99.99
2018-11-05T06:55:57.040Z,99.99
2018-11-05T06:56:57.108Z,99.99
2018-11-05T06:57:57.180Z,99.99
2018-11-05T06:58:57.228Z,99.99
2018-11-05T06:59:57.300Z,99.99
2018-11-05T07:00:57.350Z,99.99
2018-11-05T07:01:57.416Z,99.99
2018-11-05T07:02:57.483Z,99.99
2018-11-05T07:03:57.540Z,99.99
2018-11-05T07:04:57.596Z,99.99
2018-11-05T07:05:57.745Z,99.99
2018-11-05T07:06:57.717Z,99.99
2018-11-05T07:07:57.793Z,99.99
2018-11-05T07:08:57.849Z,99.99
2018-11-05T07:09:57.992Z,99.99
2018-11-05T07:10:57.970Z,99.99
2018-11-05T07:11:58.029Z,99.99
2018-11-05T07:12:58.241Z,99.99
2018-11-05T07:13:58.148Z,99.99
2018-11-05T07:14:58.212Z,99.99
2018-11-05T07:15:58.273Z,99.99
2018-11-05T07:16:58.337Z,99.99
2018-11-05T07:17:58.404Z,99.99
2018-11-05T07:18:58.689Z,99.99
2018-11-05T07:19:58.527Z,99.99
2018-11-05T07:20:58.585Z,99.99
2018-11-05T07:21:58.645Z,99.99
2018-11-05T07:22:58.713Z,99.99
2018-11-05T07:23:58.777Z,99.99
2018-11-05T07:24:58.829Z,99.99
2018-11-05T07:25:58.894Z,99.99
2018-11-05T07:26:58.954Z,99.99
2018-11-05T07:27:59.025Z,99.99
2018-11-05T07:28:59.086Z,99.99
2018-11-05T07:29:59.142Z,99.99
2018-11-05T07:30:59.202Z,99.99
2018-11-05T07:31:59.266Z,99.99
2018-11-05T07:32:59.338Z,99.99
2018-11-05T07:33:59.542Z,99.99
2018-11-05T07:34:59.454Z,99.99
2018-11-05T07:35:59.510Z,99.99
2018-11-05T07:36:59.574Z,99.99
2018-11-05T07:37:59.642Z,99.99
2018-11-05T07:38:59.706Z,99.99
2018-11-05T07:39:59.758Z,99.99
2018-11-05T07:40:59.822Z,99.99
2018-11-05T07:41:59.882Z,99.99
2018-11-05T07:42:59.955Z,99.99
2018-11-05T07:44:00.019Z,99.99
2018-11-05T07:45:00.071Z,99.99
2018-11-05T07:46:00.131Z,99.99
2018-11-05T07:47:00.195Z,99.99
2018-11-05T07:48:00.258Z,99.99
2018-11-05T07:49:00.363Z,99.99
2018-11-05T07:50:00.426Z,99.99
2018-11-05T07:51:00.445Z,99.99
2018-11-05T07:52:00.504Z,99.99
2018-11-05T07:53:00.567Z,99.99
2018-11-05T07:54:00.637Z,99.99
2018-11-05T07:55:00.701Z,99.99
2018-11-05T07:56:00.789Z,99.99
2018-11-05T07:57:00.815Z,99.99
2018-11-05T07:58:00.875Z,99.99
2018-11-05T07:59:00.947Z,99.99
2018-11-05T08:00:01.012Z,99.99
2018-11-05T08:01:01.065Z,99.99
2018-11-05T08:02:01.128Z,99.99
2018-11-05T08:03:01.371Z,99.99
2018-11-05T08:04:01.440Z,99.99
2018-11-05T08:05:01.311Z,99.99
2018-11-05T08:06:01.375Z,99.99
2018-11-05T08:07:01.436Z,99.99
2018-11-05T08:08:01.499Z,99.99
2018-11-05T08:09:01.568Z,99.99
2018-11-05T08:10:01.633Z,99.99
2018-11-05T08:11:01.688Z,99.99
2018-11-05T08:12:01.748Z,99.99
2018-11-05T08:13:01.827Z,99.99
2018-11-05T08:14:01.880Z,99.99
2018-11-05T08:15:01.944Z,99.99
2018-11-05T08:16:01.996Z,99.99
2018-11-05T08:17:02.060Z,99.99
2018-11-05T08:18:02.121Z,99.99
2018-11-05T08:19:02.242Z,99.99
2018-11-05T08:20:02.248Z,99.99
2018-11-05T08:21:02.308Z,99.99
2018-11-05T08:22:02.368Z,99.99
2018-11-05T08:23:02.432Z,99.99
2018-11-05T08:24:02.504Z,99.99
2018-11-05T08:25:02.565Z,99.99
2018-11-05T08:26:02.620Z,99.99
2018-11-05T08:27:02.680Z,99.99
2018-11-05T08:28:02.746Z,99.99
2018-11-05T08:29:02.812Z,99.99
2018-11-05T08:30:02.877Z,99.99
2018-11-05T08:31:02.933Z,99.99
2018-11-05T08:32:02.993Z,99.99
2018-11-05T08:33:03.056Z,99.99
2018-11-05T08:34:03.247Z,99.99
2018-11-05T08:35:03.180Z,99.99
2018-11-05T08:36:03.245Z,99.99
2018-11-05T08:37:03.326Z,99.99
2018-11-05T08:38:03.368Z,99.99
2018-11-05T08:39:03.437Z,99.99
2018-11-05T08:40:03.531Z,99.99
2018-11-05T08:41:03.552Z,99.99
2018-11-05T08:42:03.617Z,99.99
2018-11-05T08:43:03.681Z,99.99
2018-11-05T08:44:03.757Z,99.99
2018-11-05T08:45:03.813Z,99.99
2018-11-05T08:46:03.865Z,99.99
2018-11-05T08:47:03.929Z,99.99
2018-11-05T08:48:03.993Z,99.99
2018-11-05T08:49:04.061Z,99.99
2018-11-05T08:50:04.153Z,99.99
2018-11-05T08:51:04.494Z,99.99
2018-11-05T08:52:04.244Z,99.99
2018-11-05T08:53:04.306Z,99.99
2018-11-05T08:54:04.433Z,99.99
2018-11-05T08:55:04.437Z,99.99
2018-11-05T08:56:04.490Z,99.99
2018-11-05T08:57:04.554Z,99.99
2018-11-05T08:58:04.614Z,99.99
2018-11-05T08:59:04.687Z,99.99
2018-11-05T09:00:04.750Z,99.99
2018-11-05T09:01:04.819Z,99.99
2018-11-05T09:02:04.866Z,99.99
2018-11-05T09:03:04.930Z,99.99
2018-11-05T09:04:04.999Z,99.99
2018-11-05T09:05:05.071Z,99.99
2018-11-05T09:06:05.114Z,99.99
2018-11-05T09:07:05.192Z,99.99
2018-11-05T09:08:05.270Z,99.99
2018-11-05T09:09:05.306Z,99.99
2018-11-05T09:10:05.746Z,99.99
2018-11-05T09:11:05.818Z,99.99
2018-11-05T09:12:05.548Z,99.99
2018-11-05T09:13:05.554Z,99.99
2018-11-05T09:14:05.618Z,99.99
2018-11-05T09:15:05.686Z,99.99
2018-11-05T09:16:05.819Z,99.99
2018-11-05T09:17:05.807Z,99.99
2018-11-05T09:18:05.867Z,99.99
2018-11-05T09:19:05.931Z,99.99
2018-11-05T09:20:06.001Z,99.99
2018-11-05T09:21:06.067Z,99.99
2018-11-05T09:22:06.119Z,99.99
2018-11-05T09:23:06.179Z,99.99
2018-11-05T09:24:06.243Z,99.99
2018-11-05T09:25:06.592Z,99.99
2018-11-05T09:26:06.368Z,99.99
2018-11-05T09:27:06.431Z,99.99
2018-11-05T09:28:06.600Z,99.99
2018-11-05T09:29:06.560Z,99.99
2018-11-05T09:30:06.628Z,99.99
2018-11-05T09:31:06.698Z,99.99
2018-11-05T09:32:06.748Z,99.99
2018-11-05T09:33:06.812Z,99.99
2018-11-05T09:34:06.872Z,99.99
2018-11-05T09:35:06.944Z,99.99
2018-11-05T09:36:07.004Z,99.99
2018-11-05T09:37:07.060Z,99.99
2018-11-05T09:38:07.128Z,99.99
2018-11-05T09:39:07.184Z,99.99
2018-11-05T09:40:07.608Z,99.99
2018-11-05T09:41:07.312Z,99.99
2018-11-05T09:42:07.376Z,99.99
2018-11-05T09:43:07.436Z,99.99
2018-11-05T09:44:07.500Z,99.99
2018-11-05T09:45:07.564Z,99.99
2018-11-05T09:46:07.640Z,99.99
2018-11-05T09:47:07.692Z,99.99
2018-11-05T09:48:07.752Z,99.99
2018-11-05T09:49:07.816Z,99.99
2018-11-05T09:50:07.880Z,99.99
2018-11-05T09:51:07.949Z,99.99
2018-11-05T09:52:08.013Z,99.99
2018-11-05T09:53:08.121Z,99.99
2018-11-05T09:54:08.129Z,99.99
2018-11-05T09:55:08.193Z,99.99
2018-11-05T09:56:08.289Z,99.99
2018-11-05T09:57:08.357Z,99.99
2018-11-05T09:58:08.381Z,99.99
2018-11-05T09:59:08.445Z,99.99
2018-11-05T10:00:08.509Z,99.99
2018-11-05T10:01:08.580Z,99.99
2018-11-05T10:02:08.649Z,99.99
2018-11-05T10:03:08.840Z,99.99
2018-11-05T10:04:08.838Z,99.99
2018-11-05T10:05:09.010Z,99.99
2018-11-05T10:06:08.897Z,99.99
2018-11-05T10:07:08.961Z,99.99
2018-11-05T10:08:09.013Z,99.99
2018-11-05T10:09:09.077Z,99.99
2018-11-05T10:10:09.148Z,99.99
2018-11-05T10:11:09.205Z,99.99
2018-11-05T10:12:09.305Z,99.99
2018-11-05T10:13:09.329Z,99.99
2018-11-05T10:14:09.393Z,99.99
2018-11-05T10:15:09.457Z,99.99
2018-11-05T10:16:09.521Z,99.99
2018-11-05T10:17:09.593Z,99.99
2018-11-05T10:18:09.653Z,99.99
2018-11-05T10:19:09.709Z,99.99
2018-11-05T10:20:09.774Z,99.99
2018-11-05T10:21:09.837Z,99.99
2018-11-05T10:22:09.923Z,99.99
2018-11-05T10:23:09.969Z,99.99
2018-11-05T10:24:10.026Z,99.99
2018-11-05T10:25:10.146Z,99.99
2018-11-05T10:26:10.208Z,99.99
2018-11-05T10:27:10.238Z,99.99
2018-11-05T10:28:10.277Z,99.99
2018-11-05T10:29:10.344Z,99.99
2018-11-05T10:30:10.405Z,99.99
2018-11-05T10:31:10.471Z,99.99
2018-11-05T10:32:10.542Z,99.99
2018-11-05T10:33:10.657Z,99.99
2018-11-05T10:34:10.662Z,99.99
2018-11-05T10:35:10.722Z,99.99
2018-11-05T10:36:10.786Z,99.99
2018-11-05T10:37:10.858Z,99.99
2018-11-05T10:38:10.918Z,99.99
2018-11-05T10:39:10.974Z,99.99
2018-11-05T10:40:11.068Z,99.99
2018-11-05T10:41:11.107Z,99.99
2018-11-05T10:42:11.438Z,99.99
2018-11-05T10:43:11.230Z,99.99
2018-11-05T10:44:11.352Z,99.99
2018-11-05T10:45:11.354Z,99.99
2018-11-05T10:46:11.489Z,99.99
2018-11-05T10:47:11.498Z,99.99
2018-11-05T10:48:11.557Z,99.99
2018-11-05T10:49:11.611Z,99.99
2018-11-05T10:50:11.726Z,99.99
2018-11-05T10:51:11.871Z,99.99
2018-11-05T10:52:12.092Z,99.99
2018-11-05T10:53:11.871Z,99.19
2018-11-05T10:54:11.927Z,99.10
2018-11-05T10:55:11.994Z,98.61
2018-11-05T10:56:12.055Z,99.48
2018-11-05T10:57:12.143Z,98.90
2018-11-05T10:58:12.255Z,99.48
2018-11-05T10:59:12.247Z,98.61
2018-11-05T11:00:12.316Z,98.66
2018-11-05T11:01:12.375Z,99.24
2018-11-05T11:02:12.445Z,99.57
2018-11-05T11:03:12.510Z,99.14
2018-11-05T11:04:12.566Z,98.75
2018-11-05T11:05:12.628Z,99.04
2018-11-05T11:06:12.691Z,99.04
2018-11-05T11:07:12.763Z,98.95
2018-11-05T11:08:12.828Z,99.19
2018-11-05T11:09:12.883Z,99.14
2018-11-05T11:10:12.947Z,98.66
2018-11-05T11:11:13.012Z,99.43
2018-11-05T11:12:13.172Z,99.24
2018-11-05T11:13:13.140Z,99.14
2018-11-05T11:14:13.200Z,98.95
2018-11-05T11:15:13.344Z,99.62
2018-11-05T11:16:13.328Z,99.99
2018-11-05T11:17:13.401Z,99.71
2018-11-05T11:18:13.463Z,99.90
2018-11-05T11:19:13.520Z,99.99
2018-11-05T11:20:13.584Z,99.99
2018-11-05T11:21:13.648Z,99.99
2018-11-05T11:22:13.810Z,99.99
2018-11-05T11:23:13.785Z,99.99
2018-11-05T11:24:13.836Z,99.99
2018-11-05T11:25:13.900Z,99.99
2018-11-05T11:26:13.964Z,99.99
2018-11-05T11:27:14.037Z,99.57
2018-11-05T11:28:14.161Z,98.71
2018-11-05T11:29:14.249Z,98.33
2018-11-05T11:30:14.220Z,98.04
2018-11-05T11:31:14.285Z,96.94
2018-11-05T11:32:14.364Z,96.66
2018-11-05T11:33:14.413Z,96.18
2018-11-05T11:34:14.473Z,95.22
2018-11-05T11:35:14.537Z,95.41
2018-11-05T11:36:14.605Z,95.03
2018-11-05T11:37:14.711Z,95.61
2018-11-05T11:38:14.737Z,95.03
2018-11-05T11:39:14.793Z,94.36
2018-11-05T11:40:14.861Z,95.61
2018-11-05T11:41:14.930Z,95.65
2018-11-05T11:42:15.016Z,95.75
2018-11-05T11:43:15.061Z,96.32
2018-11-05T11:44:15.188Z,96.42
2018-11-05T11:45:15.182Z,96.89
2018-11-05T11:46:15.247Z,96.99
2018-11-05T11:47:15.307Z,97.66
2018-11-05T11:48:15.645Z,97.66
2018-11-05T11:49:15.437Z,97.47
2018-11-05T11:50:15.500Z,98.04
2018-11-05T11:51:15.562Z,97.28
2018-11-05T11:52:15.627Z,97.47
2018-11-05T11:53:15.800Z,98.04
2018-11-05T11:54:15.761Z,97.47
2018-11-05T11:55:15.847Z,96.80
2018-11-05T11:56:15.882Z,96.80
2018-11-05T11:57:15.952Z,96.42
2018-11-05T11:58:16.019Z,96.42
2018-11-05T11:59:16.082Z,97.04
2018-11-05T12:00:16.142Z,95.89
2018-11-05T12:01:16.202Z,95.79
2018-11-05T12:02:16.320Z,95.61
2018-11-05T12:03:16.337Z,95.03
2018-11-05T12:04:16.403Z,93.59
2018-11-05T12:05:16.636Z,94.45
2018-11-05T12:06:16.522Z,93.45
2018-11-05T12:07:16.586Z,94.40
2018-11-05T12:08:16.658Z,92.68
2018-11-05T12:09:16.722Z,93.54
2018-11-05T12:10:16.778Z,92.49
2018-11-05T12:11:16.846Z,92.30
2018-11-05T12:12:16.914Z,92.97
2018-11-05T12:13:16.982Z,93.45
2018-11-05T12:14:17.061Z,93.45
2018-11-05T12:15:17.106Z,92.44
2018-11-05T12:16:17.166Z,91.19
2018-11-05T12:17:17.230Z,90.48
2018-11-05T12:18:17.562Z,91.10
2018-11-05T12:19:17.358Z,90.33
2018-11-05T12:20:17.464Z,90.14
2018-11-05T12:21:17.491Z,89.95
2018-11-05T12:22:17.555Z,90.14
2018-11-05T12:23:17.626Z,89.66
2018-11-05T12:24:17.690Z,90.33
2018-11-05T12:25:17.746Z,90.62
2018-11-05T12:26:17.810Z,90.58
2018-11-05T12:27:17.875Z,90.58
2018-11-05T12:28:17.947Z,90.77
2018-11-05T12:29:18.015Z,90.67
2018-11-05T12:30:18.071Z,91.11
2018-11-05T12:31:18.135Z,91.68
2018-11-05T12:32:18.199Z,91.39
2018-11-05T12:33:18.307Z,92.25
2018-11-05T12:34:18.327Z,93.02
2018-11-05T12:35:18.391Z,93.40
2018-11-05T12:36:18.459Z,92.73
2018-11-05T12:37:18.521Z,93.02
2018-11-05T12:38:18.592Z,93.30
2018-11-05T12:39:18.655Z,93.40
2018-11-05T12:40:18.724Z,93.79
2018-11-05T12:41:18.779Z,94.02
2018-11-05T12:42:18.847Z,94.41
2018-11-05T12:43:18.916Z,95.56
2018-11-05T12:44:19.030Z,95.27
2018-11-05T12:45:19.036Z,95.75
2018-11-05T12:46:19.100Z,95.94
2018-11-05T12:47:19.164Z,96.03
2018-11-05T12:48:19.252Z,96.22
2018-11-05T12:49:19.292Z,95.75
2018-11-05T12:50:19.356Z,96.22
2018-11-05T12:51:19.423Z,95.84
2018-11-05T12:52:19.484Z,96.03
2018-11-05T12:53:19.560Z,96.99